CSAV Lonquen — A8OT2 — position and weather

sailwx.info

Track history (hours):
 
Tides and Currents Weather Stations Pressure Air Temp Water Temp Dewpoint Dewpoint Depression Visibility Wind Speed Wind Dir Waves Ship Positions

CSAV Lonquen

Last reported at 2014-Sep-15 08:33 UTC. Time now 2014-Sep-15 09:30 UTC.
Position N 51°57' E 001°18'.

Length 261 m; draft 10.4 m.

Type: Ship (hazmat cat A). MMSI: 636091501.

Date/timePositionNaut miles runAvg speedWind from/ knotsBaromVisibWave heightAir tempDewpointWater temp
2014-Sep-15 08:33N 51°57' E 001°18'0 0.0
2014-Sep-15 07:33N 51°57' E 001°18'0 0.0
2014-Sep-15 06:33N 51°57' E 001°18'0 0.1
2014-Sep-15 05:33N 51°57' E 001°18'9 8.8
2014-Sep-15 04:33N 51°56' E 001°32'1110.5
2014-Sep-15 03:34N 51°51' E 001°47'1313.4
2014-Sep-15 02:34N 51°38' E 001°51'1515.4
2014-Sep-15 01:34N 51°24' E 002°02'1515.1
2014-Sep-15 00:33N 51°12' E 001°48'1414.2
2014-Sep-14 23:34N 51°01' E 001°33'4113.7
2014-Sep-14 20:33N 50°30' E 000°50'1814.9
2014-Sep-14 19:23N 50°26' E 000°23'  
2014-Sep-12 12:07N 38°04' W 009°38'1118.1
2014-Sep-12 11:29N 37°53' W 009°35'1718.0
2014-Sep-12 10:33N 37°36' W 009°30'8016.0
2014-Sep-12 05:33N 36°34' W 008°28'1918.5
2014-Sep-12 04:30N 36°28' W 008°05'12718.0
2014-Sep-11 21:27N 35°59' W 005°31'1212.9
2014-Sep-11 20:33N 36°02' W 005°17'18716.7
2014-Sep-11 09:21N 36°35' W 001°29'3417.0
2014-Sep-11 07:22N 36°44' W 000°48'3316.2
2014-Sep-11 05:18N 36°52' W 000°08'4616.1
2014-Sep-11 02:26N 37°04' E 000°48'27317.2
2014-Sep-10 10:33N 38°13' E 006°21'8817.7
2014-Sep-10 05:33N 38°36' E 008°10'2718.9
2014-Sep-10 04:08N 38°44' E 008°43'1119.2
2014-Sep-10 03:33N 38°46' E 008°57'2019.6
2014-Sep-10 02:33N 38°50' E 009°21'1919.2
2014-Sep-10 01:32N 38°57' E 009°45'22418.6
2014-Sep-09 13:30N 40°25' E 014°13'1718.3
2014-Sep-09 12:33N 40°32' E 014°34'7 0.3
2014-Sep-08 09:27N 40°28' E 014°42'1514.4
2014-Sep-08 08:24N 40°13' E 014°43'  
Track history (hours):
 
Tides and Currents Weather Stations Pressure Air Temp Water Temp Dewpoint Dewpoint Depression Visibility Wind Speed Wind Dir Waves Ship Positions

CSAV Lonquen

Last reported at 2014-Sep-15 08:33 UTC. Time now 2014-Sep-15 09:30 UTC.
Position N 51°57' E 001°18'.

Length 261 m; draft 10.4 m.

Type: Ship (hazmat cat A). MMSI: 636091501.

Date/timePositionNaut miles runAvg speedWind from/ knotsBaromVisibWave heightAir tempDewpointWater temp
2014-Sep-15 08:33N 51°57' E 001°18'0 0.0
2014-Sep-15 07:33N 51°57' E 001°18'0 0.0
2014-Sep-15 06:33N 51°57' E 001°18'0 0.1
2014-Sep-15 05:33N 51°57' E 001°18'9 8.8
2014-Sep-15 04:33N 51°56' E 001°32'1110.5
2014-Sep-15 03:34N 51°51' E 001°47'1313.4
2014-Sep-15 02:34N 51°38' E 001°51'1515.4
2014-Sep-15 01:34N 51°24' E 002°02'1515.1
2014-Sep-15 00:33N 51°12' E 001°48'1414.2
2014-Sep-14 23:34N 51°01' E 001°33'4113.7
2014-Sep-14 20:33N 50°30' E 000°50'1814.9
2014-Sep-14 19:23N 50°26' E 000°23'  
2014-Sep-12 12:07N 38°04' W 009°38'1118.1
2014-Sep-12 11:29N 37°53' W 009°35'1718.0
2014-Sep-12 10:33N 37°36' W 009°30'8016.0
2014-Sep-12 05:33N 36°34' W 008°28'1918.5
2014-Sep-12 04:30N 36°28' W 008°05'12718.0
2014-Sep-11 21:27N 35°59' W 005°31'1212.9
2014-Sep-11 20:33N 36°02' W 005°17'18716.7
2014-Sep-11 09:21N 36°35' W 001°29'3417.0
2014-Sep-11 07:22N 36°44' W 000°48'3316.2
2014-Sep-11 05:18N 36°52' W 000°08'4616.1
2014-Sep-11 02:26N 37°04' E 000°48'27317.2
2014-Sep-10 10:33N 38°13' E 006°21'8817.7
2014-Sep-10 05:33N 38°36' E 008°10'2718.9
2014-Sep-10 04:08N 38°44' E 008°43'1119.2
2014-Sep-10 03:33N 38°46' E 008°57'2019.6
2014-Sep-10 02:33N 38°50' E 009°21'1919.2
2014-Sep-10 01:32N 38°57' E 009°45'22418.6
2014-Sep-09 13:30N 40°25' E 014°13'1718.3
2014-Sep-09 12:33N 40°32' E 014°34'7 0.3
2014-Sep-08 09:27N 40°28' E 014°42'1514.4
2014-Sep-08 08:24N 40°13' E 014°43'  

Dump ship's entire track history